Evansville, Indiana
Current Conditions -  °F | °C
As of 1:54 AM on Thursday 29 Jan 2015 (Local Time) from KEVV Reporting Station
Overcast Overcast  
Wind Chill: 40°   Ceiling: 9000
Heat Index: 44°   Visibility: 10mi
Dew Point: 32°   Wind: 7mph
Humidity: 63%   Direction: 160°SSE
Pressure: 29.95"   Gusts: NA
Location:  37.98°N, 87.56°W
Report Text: KEVV 290754Z AUTO 16006KT 10SM FEW075 OVC090 07/00 A2995 RMK AO2 RAB0656E52 SLP144 P0002 T00670000
Loading
Personal Weather Stations






























Interactive Weather Map New forecast layout! Learn more

10-Day Weather Forecast

Advertisements
Track Severe Weather on mobile